Time;durP1;ratioP1;P1;durP2;ratioP2;P2;SDS_P1;SDS_P2;PMS_P1;PMS_P2;Temp;Humidity;BMP_temperature;BMP_pressure;BME280_temperature;BME280_humidity;BME280_pressure;Samples;Min_cycle;Max_cycle;Signal;HPM_P1;HPM_P2
2023/01/31 00:01:28;;;;;;;20.23;2.63;;;3.10;99.90;;;;;;5123647;27;20066;-66
2023/01/31 00:03:56;;;;;;;17.90;2.85;;;3.10;99.90;;;;;;5129988;27;20078;-66
2023/01/31 00:06:31;;;;;;;17.98;2.67;;;3.10;99.90;;;;;;5117959;27;20031;-68
2023/01/31 00:08:58;;;;;;;18.67;2.22;;;3.10;99.90;;;;;;5092338;28;20106;-67
2023/01/31 00:11:26;;;;;;;19.50;2.50;;;3.10;99.90;;;;;;5128813;27;20031;-67
2023/01/31 00:13:52;;;;;;;26.13;2.83;;;3.10;99.90;;;;;;5107853;28;20044;-66
2023/01/31 00:16:19;;;;;;;22.55;3.30;;;3.10;99.90;;;;;;5128863;27;20039;-67
2023/01/31 00:18:46;;;;;;;23.92;2.90;;;3.10;99.90;;;;;;5129659;27;20039;-68
2023/01/31 00:21:17;;;;;;;16.90;2.33;;;3.00;99.90;;;;;;5107505;28;20760;-66
2023/01/31 00:23:44;;;;;;;14.73;2.55;;;3.00;99.90;;;;;;5114026;27;20035;-66
2023/01/31 00:26:15;;;;;;;20.73;2.58;;;3.00;99.90;;;;;;5111623;27;20039;-66
2023/01/31 00:28:42;;;;;;;12.63;2.45;;;2.90;99.90;;;;;;5126586;27;20046;-66
2023/01/31 00:31:09;;;;;;;20.48;2.10;;;2.90;99.90;;;;;;5129482;27;20058;-67
2023/01/31 00:33:36;;;;;;;21.40;2.45;;;2.90;99.90;;;;;;5129740;27;20507;-66
2023/01/31 00:36:07;;;;;;;20.38;2.60;;;2.90;99.90;;;;;;5109026;28;20048;-66
2023/01/31 00:38:33;;;;;;;22.10;2.25;;;2.80;99.90;;;;;;5117100;27;20098;-67
2023/01/31 00:40:59;;;;;;;17.60;2.42;;;2.80;99.90;;;;;;5106573;28;20031;-66
2023/01/31 00:43:25;;;;;;;16.88;2.42;;;2.80;99.90;;;;;;5115636;27;20088;-68
2023/01/31 00:45:50;;;;;;;17.45;2.67;;;2.80;99.90;;;;;;5093588;28;20039;-66
2023/01/31 00:48:16;;;;;;;26.60;3.35;;;2.70;99.90;;;;;;5115269;27;20125;-66
2023/01/31 00:50:41;;;;;;;21.05;2.75;;;2.60;99.90;;;;;;5128724;27;20106;-68
2023/01/31 00:53:08;;;;;;;12.80;2.22;;;2.60;99.90;;;;;;5120396;27;20080;-66
2023/01/31 00:55:34;;;;;;;19.45;2.80;;;2.50;99.90;;;;;;5094960;28;21434;-67
2023/01/31 00:57:59;;;;;;;15.98;2.70;;;2.40;99.90;;;;;;5112280;27;20075;-67
2023/01/31 01:00:25;;;;;;;18.92;2.78;;;2.40;99.90;;;;;;5127166;27;20118;-67
2023/01/31 01:02:50;;;;;;;22.63;2.58;;;2.30;99.90;;;;;;5108514;28;20111;-66
2023/01/31 01:05:16;;;;;;;16.92;2.00;;;2.30;99.90;;;;;;5128139;28;20047;-66
2023/01/31 01:07:42;;;;;;;13.55;3.20;;;2.30;99.90;;;;;;5107530;28;20047;-68
2023/01/31 01:10:08;;;;;;;17.73;2.50;;;2.30;99.90;;;;;;5110398;28;20400;-67
2023/01/31 01:12:34;;;;;;;17.17;2.53;;;2.30;99.90;;;;;;5128179;28;20112;-65
2023/01/31 01:14:59;;;;;;;17.38;2.20;;;2.30;99.90;;;;;;5108653;28;20509;-67
2023/01/31 01:17:25;;;;;;;13.57;2.30;;;2.40;99.90;;;;;;5108363;28;20478;-68
2023/01/31 01:19:51;;;;;;;17.67;2.80;;;2.40;99.90;;;;;;5128545;28;20039;-66
2023/01/31 01:22:16;;;;;;;19.88;3.10;;;2.40;99.90;;;;;;5128671;27;20388;-68
2023/01/31 01:24:43;;;;;;;15.23;2.38;;;2.40;99.90;;;;;;5128913;28;20039;-65
2023/01/31 01:27:10;;;;;;;11.18;2.10;;;2.40;99.90;;;;;;5127266;28;20043;-68
2023/01/31 01:29:35;;;;;;;14.13;1.95;;;2.50;99.90;;;;;;5128477;27;20434;-67
2023/01/31 01:32:02;;;;;;;16.70;1.90;;;2.50;99.90;;;;;;5111342;28;20126;-66
2023/01/31 01:34:28;;;;;;;16.67;2.10;;;2.50;99.90;;;;;;5110761;28;20051;-67
2023/01/31 01:36:53;;;;;;;21.80;3.60;;;2.60;99.90;;;;;;5128827;27;20053;-66
2023/01/31 01:39:19;;;;;;;14.63;2.50;;;2.60;99.90;;;;;;5131348;27;20042;-67
2023/01/31 01:41:46;;;;;;;13.23;2.20;;;2.50;99.90;;;;;;5133187;27;20035;-66
2023/01/31 01:44:41;;;;;;;16.75;2.35;;;2.60;99.90;;;;;;5132741;27;20046;-68
2023/01/31 01:47:20;;;;;;;19.30;2.03;;;2.60;99.90;;;;;;5097687;28;20039;-67
2023/01/31 01:49:58;;;;;;;12.57;2.20;;;2.50;99.90;;;;;;5111355;28;20043;-67
2023/01/31 01:52:26;;;;;;;16.98;2.35;;;2.50;99.90;;;;;;5123358;27;20047;-65
2023/01/31 01:54:57;;;;;;;14.30;1.85;;;2.60;99.90;;;;;;5130708;27;20051;-68
2023/01/31 01:57:36;;;;;;;21.10;2.00;;;2.60;99.90;;;;;;5114816;27;20035;-65
2023/01/31 02:00:09;;;;;;;16.10;1.95;;;2.60;99.90;;;;;;5110853;28;20041;-67
2023/01/31 02:02:35;;;;;;;15.13;2.58;;;2.50;99.90;;;;;;5113934;27;20050;-68
2023/01/31 02:05:02;;;;;;;18.83;2.30;;;2.60;99.90;;;;;;5111192;28;20036;-66
2023/01/31 02:07:28;;;;;;;14.23;2.40;;;2.50;99.90;;;;;;5117200;27;20060;-66
2023/01/31 02:10:03;;;;;;;20.23;3.50;;;2.60;99.90;;;;;;5111283;27;20047;-68
2023/01/31 02:12:32;;;;;;;15.23;2.05;;;2.60;99.90;;;;;;5109501;28;20051;-67
2023/01/31 02:14:57;;;;;;;16.50;2.70;;;2.70;99.90;;;;;;5111015;28;20176;-67
2023/01/31 02:17:23;;;;;;;19.20;2.78;;;2.70;99.90;;;;;;5113677;27;20553;-65
2023/01/31 02:20:09;;;;;;;14.63;2.17;;;2.80;99.90;;;;;;5114860;27;20036;-65
2023/01/31 02:22:38;;;;;;;20.23;2.83;;;2.80;99.90;;;;;;5112568;28;20509;-66
2023/01/31 02:25:34;;;;;;;18.70;2.20;;;2.80;99.90;;;;;;5113593;27;20043;-65
2023/01/31 02:28:12;;;;;;;24.60;3.17;;;2.80;99.90;;;;;;5131807;27;20035;-65
2023/01/31 02:31:21;;;;;;;18.35;3.08;;;2.80;99.90;;;;;;5127930;27;20561;-65
2023/01/31 02:34:07;;;;;;;20.98;2.97;;;2.90;99.90;;;;;;5130849;27;20288;-67
2023/01/31 02:37:12;;;;;;;17.90;2.25;;;2.90;99.90;;;;;;5032401;28;20056;-67
2023/01/31 02:40:06;;;;;;;14.20;2.35;;;3.00;99.90;;;;;;5039320;28;20064;-66
2023/01/31 02:42:54;;;;;;;22.08;2.60;;;3.00;99.90;;;;;;5030012;28;20504;-68
2023/01/31 02:45:32;;;;;;;13.52;2.30;;;3.00;99.90;;;;;;5012672;28;20030;-67
2023/01/31 02:48:03;;;;;;;13.20;1.98;;;3.10;99.90;;;;;;5028943;28;20520;-66
2023/01/31 02:50:48;;;;;;;12.38;2.72;;;3.10;99.90;;;;;;5027958;28;20411;-65
2023/01/31 02:53:37;;;;;;;9.82;2.63;;;3.10;99.90;;;;;;5029065;28;20045;-66
2023/01/31 02:56:17;;;;;;;12.93;2.33;;;3.10;99.90;;;;;;5012738;28;20045;-66
2023/01/31 02:58:55;;;;;;;15.70;1.95;;;3.10;99.90;;;;;;5028651;28;20048;-66
2023/01/31 03:01:27;;;;;;;17.23;2.85;;;3.10;99.90;;;;;;5028005;28;20401;-66
2023/01/31 03:03:56;;;;;;;;;;;3.20;99.90;;;;;;5027562;28;20057;-67
2023/01/31 03:06:24;;;;;;;17.15;2.30;;;3.10;99.90;;;;;;4994472;28;19940;-66
2023/01/31 03:09:12;;;;;;;13.02;1.70;;;3.10;99.90;;;;;;5011120;28;20053;-65
2023/01/31 03:11:54;;;;;;;19.40;2.35;;;3.10;99.90;;;;;;5027865;28;20045;-67
2023/01/31 03:14:43;;;;;;;22.00;2.75;;;3.10;99.90;;;;;;5090016;28;20039;-68
2023/01/31 03:17:31;;;;;;;20.38;2.60;;;3.10;99.90;;;;;;5011640;28;20050;-67
2023/01/31 03:20:22;;;;;;;16.30;2.72;;;3.10;99.90;;;;;;5010029;28;20056;-66
2023/01/31 03:22:58;;;;;;;20.10;3.17;;;3.10;99.90;;;;;;4994733;28;20049;-67
2023/01/31 03:25:27;;;;;;;19.40;2.63;;;3.10;99.90;;;;;;4993913;28;20061;-67
2023/01/31 03:28:00;;;;;;;11.85;2.00;;;3.20;99.90;;;;;;5011599;28;20057;-67
2023/01/31 03:30:33;;;;;;;11.13;1.98;;;3.20;99.90;;;;;;5011436;28;20048;-65
2023/01/31 03:33:16;;;;;;;13.27;2.60;;;3.30;99.90;;;;;;5011274;28;20174;-67
2023/01/31 03:35:51;;;;;;;16.85;2.58;;;3.30;99.90;;;;;;5010861;28;20049;-66
2023/01/31 03:38:20;;;;;;;15.65;1.85;;;3.40;99.90;;;;;;5007991;28;20517;-68
2023/01/31 03:40:55;;;;;;;14.98;2.33;;;3.50;99.90;;;;;;5010900;28;20064;-66
2023/01/31 03:43:25;;;;;;;15.13;2.30;;;3.50;99.90;;;;;;5010997;28;20083;-67
2023/01/31 03:46:00;;;;;;;19.55;2.58;;;3.60;99.90;;;;;;5010752;28;20053;-66
2023/01/31 03:48:32;;;;;;;17.85;2.65;;;3.60;99.90;;;;;;5011058;28;20049;-67
2023/01/31 03:51:06;;;;;;;12.80;2.47;;;3.60;99.90;;;;;;5009614;28;20060;-65
2023/01/31 03:53:38;;;;;;;17.15;2.97;;;3.60;99.90;;;;;;5043447;28;20516;-66
2023/01/31 03:56:09;;;;;;;19.00;2.88;;;3.60;99.90;;;;;;5114880;27;20051;-66
2023/01/31 03:58:38;;;;;;;18.33;2.47;;;3.70;99.90;;;;;;5112330;27;20059;-67
2023/01/31 04:01:07;;;;;;;22.40;2.63;;;3.70;99.90;;;;;;5091219;28;20039;-67
2023/01/31 04:03:38;;;;;;;19.35;2.20;;;3.70;99.90;;;;;;5108023;28;20066;-67
2023/01/31 04:06:04;;;;;;;19.58;3.15;;;3.70;99.90;;;;;;5128261;27;21313;-65
2023/01/31 04:08:32;;;;;;;20.70;2.90;;;3.70;99.90;;;;;;5109189;28;20791;-65
2023/01/31 04:10:58;;;;;;;24.60;3.55;;;3.80;99.90;;;;;;5107422;28;20054;-65
2023/01/31 04:13:24;;;;;;;15.00;2.70;;;3.80;99.90;;;;;;5109008;27;20038;-66
2023/01/31 04:15:49;;;;;;;13.57;2.65;;;3.80;99.90;;;;;;5116096;27;20044;-66
2023/01/31 04:18:15;;;;;;;15.07;2.97;;;3.80;99.90;;;;;;5124346;27;20031;-65
2023/01/31 04:20:41;;;;;;;20.50;2.75;;;3.90;99.90;;;;;;5120098;27;20043;-67
2023/01/31 04:23:06;;;;;;;16.20;3.17;;;3.90;99.90;;;;;;5113819;27;20031;-66
2023/01/31 04:25:32;;;;;;;21.25;3.22;;;3.90;99.90;;;;;;5108861;28;20114;-67
2023/01/31 04:27:58;;;;;;;18.95;2.80;;;3.90;99.90;;;;;;5129208;27;20038;-65
2023/01/31 04:30:23;;;;;;;16.75;2.72;;;3.90;99.90;;;;;;5117737;27;20501;-65
2023/01/31 04:32:49;;;;;;;22.95;3.22;;;3.90;99.90;;;;;;5128944;27;20070;-67
2023/01/31 04:35:15;;;;;;;17.15;3.03;;;4.00;99.90;;;;;;5129419;27;20134;-67
2023/01/31 04:37:40;;;;;;;21.98;3.70;;;4.00;99.90;;;;;;5105377;28;20052;-65
2023/01/31 04:40:07;;;;;;;24.00;4.55;;;4.00;99.90;;;;;;5128010;27;20043;-67
2023/01/31 04:42:32;;;;;;;16.15;3.00;;;4.10;99.90;;;;;;5117792;27;20035;-66
2023/01/31 04:44:58;;;;;;;23.40;3.50;;;4.20;99.90;;;;;;5129245;27;20136;-66
2023/01/31 04:47:24;;;;;;;18.88;3.00;;;4.20;99.90;;;;;;5111696;27;20047;-68
2023/01/31 04:49:50;;;;;;;18.98;2.97;;;4.20;99.90;;;;;;5129115;27;20481;-67
2023/01/31 04:52:15;;;;;;;21.95;3.67;;;4.30;99.90;;;;;;5112140;27;20540;-67
2023/01/31 04:54:41;;;;;;;23.70;3.33;;;4.30;99.90;;;;;;5122749;27;20126;-67
2023/01/31 04:57:07;;;;;;;26.50;4.13;;;4.30;99.90;;;;;;5110928;27;20070;-67
2023/01/31 04:59:32;;;;;;;18.90;3.47;;;4.30;99.90;;;;;;5109299;28;20032;-65
2023/01/31 05:01:58;;;;;;;23.60;4.22;;;4.30;99.90;;;;;;5128944;27;20046;-67
2023/01/31 05:04:25;;;;;;;24.92;3.50;;;4.30;99.90;;;;;;5111904;28;20043;-65
2023/01/31 05:06:51;;;;;;;22.92;3.50;;;4.30;99.90;;;;;;5129035;27;20035;-66
2023/01/31 05:09:16;;;;;;;23.63;3.88;;;4.40;99.90;;;;;;5129258;28;20054;-67
2023/01/31 05:11:43;;;;;;;21.95;4.15;;;4.40;99.90;;;;;;5122567;28;20077;-66
2023/01/31 05:14:08;;;;;;;22.80;3.60;;;4.40;99.90;;;;;;5129163;27;20122;-66
2023/01/31 05:16:34;;;;;;;24.40;4.03;;;4.40;99.90;;;;;;5133207;27;20611;-67
2023/01/31 05:19:00;;;;;;;30.23;4.13;;;4.40;99.90;;;;;;5122502;27;20039;-67
2023/01/31 05:21:26;;;;;;;27.92;5.35;;;4.40;99.90;;;;;;5132642;27;20047;-68
2023/01/31 05:23:51;;;;;;;19.42;5.30;;;4.40;99.90;;;;;;5126195;27;20028;-67
2023/01/31 05:26:17;;;;;;;21.10;4.38;;;4.40;99.90;;;;;;5119814;27;20474;-67
2023/01/31 05:28:42;;;;;;;28.98;4.40;;;4.30;99.90;;;;;;5117658;27;20058;-67
2023/01/31 05:31:12;;;;;;;23.95;4.15;;;4.30;99.90;;;;;;5117381;27;20486;-68
2023/01/31 05:33:38;;;;;;;28.45;5.00;;;4.30;99.90;;;;;;5122942;27;20059;-67
2023/01/31 05:36:04;;;;;;;25.27;5.32;;;4.30;99.90;;;;;;5108377;28;20043;-68
2023/01/31 05:38:29;;;;;;;40.40;7.60;;;4.30;99.90;;;;;;5109004;27;20135;-68
2023/01/31 05:40:55;;;;;;;23.33;5.82;;;4.30;99.90;;;;;;5112195;27;20048;-67
2023/01/31 05:43:21;;;;;;;23.02;4.78;;;4.30;99.90;;;;;;5112388;28;20031;-67
2023/01/31 05:45:48;;;;;;;27.20;5.82;;;4.30;99.90;;;;;;5115134;27;20039;-68
2023/01/31 05:48:13;;;;;;;23.98;5.28;;;4.30;99.90;;;;;;5108551;28;20127;-67
2023/01/31 05:50:39;;;;;;;29.30;5.70;;;4.40;99.90;;;;;;5111939;28;20472;-67
2023/01/31 05:53:04;;;;;;;31.30;6.28;;;4.40;99.90;;;;;;5131564;27;20151;-67
2023/01/31 05:55:30;;;;;;;31.38;6.03;;;4.40;99.90;;;;;;5117319;27;20039;-65
2023/01/31 05:57:56;;;;;;;27.85;7.15;;;4.40;99.90;;;;;;5109595;28;20062;-65
2023/01/31 06:00:23;;;;;;;27.10;7.15;;;4.50;99.90;;;;;;5132158;27;20088;-65
2023/01/31 06:02:49;;;;;;;29.67;5.82;;;4.50;99.90;;;;;;5125132;27;20451;-68
2023/01/31 06:05:15;;;;;;;24.15;6.20;;;4.50;99.90;;;;;;5132088;27;20046;-66
2023/01/31 06:07:40;;;;;;;36.67;7.18;;;4.50;99.90;;;;;;5117194;27;20032;-67
2023/01/31 06:10:08;;;;;;;28.90;7.15;;;4.60;99.90;;;;;;5130093;27;20417;-68
2023/01/31 06:12:34;;;;;;;30.25;6.25;;;4.60;99.90;;;;;;5132292;27;20529;-67
2023/01/31 06:15:00;;;;;;;34.03;6.13;;;4.70;99.90;;;;;;5132251;27;20046;-66
2023/01/31 06:17:26;;;;;;;29.70;7.78;;;4.70;99.90;;;;;;5130875;27;20047;-65
2023/01/31 06:19:52;;;;;;;28.05;6.15;;;4.70;99.90;;;;;;5124419;27;20032;-66
2023/01/31 06:22:18;;;;;;;31.88;6.70;;;4.80;99.90;;;;;;5131026;27;20087;-68
2023/01/31 06:24:44;;;;;;;29.00;7.20;;;4.80;99.90;;;;;;5131938;27;20039;-67
2023/01/31 06:27:09;;;;;;;29.83;6.82;;;4.80;99.90;;;;;;5132012;27;20050;-67
2023/01/31 06:29:35;;;;;;;32.08;6.40;;;4.80;99.90;;;;;;5131738;27;20065;-67
2023/01/31 06:32:00;;;;;;;27.17;6.65;;;4.80;99.90;;;;;;5131815;27;20043;-67
2023/01/31 06:34:26;;;;;;;25.05;6.30;;;4.80;99.90;;;;;;5131535;27;20043;-67
2023/01/31 06:36:52;;;;;;;31.58;7.47;;;4.80;99.90;;;;;;5118608;27;20055;-67
2023/01/31 06:39:17;;;;;;;37.78;6.57;;;4.80;99.90;;;;;;5110923;27;20058;-67
2023/01/31 06:41:43;;;;;;;38.13;7.68;;;4.80;99.90;;;;;;5116101;27;20386;-67
2023/01/31 06:44:09;;;;;;;31.63;6.57;;;4.90;99.90;;;;;;5111822;27;20039;-66
2023/01/31 06:46:35;;;;;;;30.45;7.05;;;4.90;99.90;;;;;;5131045;27;20082;-67
2023/01/31 06:49:01;;;;;;;25.60;6.35;;;4.90;99.90;;;;;;5131429;27;20047;-68
2023/01/31 06:51:26;;;;;;;31.25;6.63;;;5.00;99.90;;;;;;5131289;27;20426;-69
2023/01/31 06:53:52;;;;;;;31.15;6.20;;;5.00;99.90;;;;;;5108920;27;20474;-68
2023/01/31 06:56:18;;;;;;;28.48;6.72;;;5.00;99.90;;;;;;5110285;28;20126;-68
2023/01/31 06:58:44;;;;;;;32.55;7.40;;;5.10;99.90;;;;;;5112135;27;20454;-67
2023/01/31 07:01:12;;;;;;;24.48;5.60;;;5.10;99.90;;;;;;5113164;27;20034;-69
2023/01/31 07:03:38;;;;;;;22.65;5.68;;;5.10;99.90;;;;;;5104047;28;20055;-67
2023/01/31 07:06:05;;;;;;;33.05;6.85;;;5.20;99.90;;;;;;5112241;27;20504;-68
2023/01/31 07:08:31;;;;;;;25.58;5.35;;;5.20;99.90;;;;;;5100736;28;20678;-68
2023/01/31 07:10:57;;;;;;;22.55;4.90;;;5.30;99.90;;;;;;5112654;27;20420;-68
2023/01/31 07:13:23;;;;;;;24.50;6.05;;;5.30;99.90;;;;;;5123444;27;20556;-67
2023/01/31 07:15:48;;;;;;;26.92;5.57;;;5.30;99.90;;;;;;5110223;27;20136;-66
2023/01/31 07:18:14;;;;;;;23.20;4.80;;;5.30;99.90;;;;;;5109200;28;20398;-67
2023/01/31 07:20:41;;;;;;;23.02;5.32;;;5.40;99.90;;;;;;5105914;28;20039;-68
2023/01/31 07:23:07;;;;;;;19.88;4.82;;;5.40;99.90;;;;;;5106057;28;20036;-68
2023/01/31 07:25:34;;;;;;;24.88;5.97;;;5.40;99.90;;;;;;5111055;27;20105;-66
2023/01/31 07:28:01;;;;;;;38.63;5.63;;;5.40;99.90;;;;;;5110375;28;20423;-68
2023/01/31 07:30:27;;;;;;;24.58;5.53;;;5.40;99.90;;;;;;5111909;27;20047;-68
2023/01/31 07:32:53;;;;;;;28.48;5.95;;;5.40;99.90;;;;;;5113562;27;20473;-69
2023/01/31 07:35:19;;;;;;;30.38;6.88;;;5.40;99.90;;;;;;5130321;27;20050;-70
2023/01/31 07:37:45;;;;;;;29.25;7.00;;;5.40;99.90;;;;;;5104205;28;20066;-69
2023/01/31 07:40:13;;;;;;;23.95;6.72;;;5.40;99.90;;;;;;5091901;28;20036;-66
2023/01/31 07:42:39;;;;;;;30.60;6.78;;;5.40;99.90;;;;;;5130548;27;20035;-66
2023/01/31 07:45:06;;;;;;;23.02;6.15;;;5.40;99.90;;;;;;5130448;27;20119;-68
2023/01/31 07:47:32;;;;;;;26.63;5.75;;;5.40;99.90;;;;;;5113018;27;20113;-68
2023/01/31 07:49:58;;;;;;;27.45;5.93;;;5.40;99.90;;;;;;5117482;27;20447;-67
2023/01/31 07:52:23;;;;;;;22.05;5.72;;;5.40;99.90;;;;;;5128942;27;20043;-68
2023/01/31 07:54:49;;;;;;;25.40;6.10;;;5.40;99.90;;;;;;5112494;27;20047;-67
2023/01/31 07:57:16;;;;;;;26.20;5.47;;;5.40;99.90;;;;;;5113241;27;20039;-67
2023/01/31 07:59:45;;;;;;;29.10;6.55;;;5.40;99.90;;;;;;5130717;27;20042;-67
2023/01/31 08:04:56;;;;;;;21.02;6.30;;;5.40;99.90;;;;;;5130406;27;20058;-69
2023/01/31 08:07:22;;;;;;;32.42;6.80;;;5.40;99.90;;;;;;5130193;27;20394;-69
2023/01/31 08:09:49;;;;;;;22.35;6.78;;;5.40;99.90;;;;;;5130226;27;20037;-67
2023/01/31 08:12:15;;;;;;;29.83;6.43;;;5.50;99.90;;;;;;5130488;27;20541;-67
2023/01/31 08:14:41;;;;;;;24.75;6.85;;;5.50;99.90;;;;;;5111942;27;20078;-68
2023/01/31 08:17:07;;;;;;;19.55;4.80;;;5.50;99.90;;;;;;5130324;27;20042;-69
2023/01/31 08:19:34;;;;;;;18.10;4.35;;;5.60;99.90;;;;;;5130190;27;20039;-67
2023/01/31 08:22:00;;;;;;;27.45;4.25;;;5.60;99.90;;;;;;5129935;27;20031;-69
2023/01/31 08:24:26;;;;;;;25.20;4.60;;;5.60;99.90;;;;;;5130052;27;20039;-69
2023/01/31 08:26:51;;;;;;;25.35;3.88;;;5.70;99.90;;;;;;5129861;27;20508;-68
2023/01/31 08:29:17;;;;;;;20.55;3.42;;;5.70;99.90;;;;;;5129810;27;20043;-68
2023/01/31 08:31:43;;;;;;;24.05;3.50;;;5.70;99.90;;;;;;5112604;27;20143;-67
2023/01/31 08:34:09;;;;;;;23.42;3.40;;;5.70;99.90;;;;;;5129327;27;20051;-67
2023/01/31 08:36:35;;;;;;;26.95;4.82;;;5.70;99.90;;;;;;5129664;27;20043;-66
2023/01/31 08:39:02;;;;;;;19.50;3.92;;;5.70;99.90;;;;;;5129732;27;20047;-69
2023/01/31 08:41:31;;;;;;;19.80;5.38;;;5.80;99.90;;;;;;5129920;27;20485;-67
2023/01/31 08:43:58;;;;;;;18.75;3.30;;;5.80;99.90;;;;;;5129355;27;20106;-66
2023/01/31 08:46:29;;;;;;;16.30;3.45;;;5.80;99.90;;;;;;5130124;27;20424;-68
2023/01/31 08:48:55;;;;;;;25.58;3.92;;;5.80;99.90;;;;;;5111279;27;20104;-68
2023/01/31 08:51:21;;;;;;;22.80;3.13;;;5.90;99.90;;;;;;5130980;27;20031;-68
2023/01/31 08:53:47;;;;;;;15.77;3.10;;;5.90;99.90;;;;;;5129270;27;20027;-67
2023/01/31 08:56:13;;;;;;;21.92;3.20;;;5.90;99.90;;;;;;5129263;27;20072;-67
2023/01/31 08:58:40;;;;;;;20.42;3.45;;;5.90;99.90;;;;;;5129562;27;20107;-66
2023/01/31 09:01:09;;;;;;;18.25;3.30;;;5.90;99.90;;;;;;5129170;27;20046;-68
2023/01/31 09:03:34;;;;;;;25.58;4.68;;;5.90;99.90;;;;;;5129692;27;20073;-66
2023/01/31 09:06:02;;;;;;;16.00;3.30;;;6.00;99.90;;;;;;5129253;27;20066;-70
2023/01/31 09:08:29;;;;;;;19.60;3.05;;;6.00;99.90;;;;;;5129606;27;20108;-68
2023/01/31 09:10:55;;;;;;;17.67;2.92;;;6.00;99.90;;;;;;5114244;28;20044;-67
2023/01/31 09:13:21;;;;;;;16.90;2.45;;;6.10;99.90;;;;;;5113254;28;20039;-68
2023/01/31 09:16:00;;;;;;;14.23;2.53;;;6.10;99.90;;;;;;5126271;27;20082;-69
2023/01/31 09:18:27;;;;;;;22.88;3.78;;;6.20;99.90;;;;;;5129442;28;20433;-67
2023/01/31 09:20:53;;;;;;;15.68;3.45;;;6.20;99.90;;;;;;5129471;28;20043;-68
2023/01/31 09:23:19;;;;;;;22.42;3.10;;;6.20;99.90;;;;;;5128890;28;20102;-67
2023/01/31 09:25:52;;;;;;;22.38;3.72;;;6.30;99.90;;;;;;5129168;28;20122;-67
2023/01/31 09:28:17;;;;;;;20.45;2.85;;;6.20;99.90;;;;;;5107449;28;20550;-67
2023/01/31 09:30:43;;;;;;;17.75;3.78;;;6.30;99.90;;;;;;5127994;28;20039;-67
2023/01/31 09:33:09;;;;;;;12.57;3.00;;;6.40;99.90;;;;;;5128812;28;20035;-67
2023/01/31 09:35:34;;;;;;;16.95;3.42;;;6.40;99.90;;;;;;5128733;28;20057;-68
2023/01/31 09:38:00;;;;;;;19.90;3.17;;;6.40;99.90;;;;;;5128873;28;20477;-67
2023/01/31 09:40:31;;;;;;;21.40;2.97;;;6.40;99.90;;;;;;5120864;28;20533;-68
2023/01/31 09:43:00;;;;;;;22.98;2.85;;;6.50;99.90;;;;;;5128958;27;20027;-70
2023/01/31 09:45:31;;;;;;;16.75;2.83;;;6.50;99.90;;;;;;5128990;28;20191;-66
2023/01/31 09:47:59;;;;;;;18.70;2.78;;;6.50;99.90;;;;;;5129455;28;20043;-69
2023/01/31 09:50:34;;;;;;;21.00;3.50;;;6.60;99.90;;;;;;5111340;28;20465;-67
2023/01/31 09:53:00;;;;;;;22.35;3.60;;;6.60;99.90;;;;;;5112011;28;20042;-68
2023/01/31 09:55:57;;;;;;;14.05;3.28;;;6.60;99.90;;;;;;5128984;27;20039;-67
2023/01/31 09:58:45;;;;;;;23.70;3.30;;;6.70;99.90;;;;;;5128700;28;20051;-67
2023/01/31 10:01:21;;;;;;;16.67;3.17;;;6.70;99.90;;;;;;5131598;27;20035;-67
2023/01/31 10:04:04;;;;;;;18.85;3.53;;;6.70;99.90;;;;;;5115700;27;20047;-67
2023/01/31 10:06:52;;;;;;;14.65;3.40;;;6.70;99.90;;;;;;5132918;27;20497;-68
2023/01/31 10:09:35;;;;;;;22.33;5.72;;;6.70;99.90;;;;;;5132606;27;20122;-69
2023/01/31 10:12:16;;;;;;;27.33;5.15;;;6.70;99.90;;;;;;5132870;27;20485;-70
2023/01/31 10:14:49;;;;;;;20.80;4.82;;;6.70;99.90;;;;;;5132469;27;20546;-69
2023/01/31 10:17:38;;;;;;;22.45;4.72;;;6.70;99.90;;;;;;5132493;27;20035;-67
2023/01/31 10:20:18;;;;;;;23.60;4.50;;;6.70;99.90;;;;;;5132609;27;20039;-66
2023/01/31 10:23:06;;;;;;;22.05;4.25;;;6.70;99.90;;;;;;5132122;27;20092;-67
2023/01/31 10:25:47;;;;;;;19.02;3.95;;;6.70;99.90;;;;;;5132165;27;20060;-68
2023/01/31 10:28:22;;;;;;;14.05;3.20;;;6.80;99.90;;;;;;5132231;27;20082;-66
2023/01/31 10:31:04;;;;;;;23.63;4.50;;;6.70;99.90;;;;;;5132014;27;20091;-66
2023/01/31 10:33:55;;;;;;;16.15;3.00;;;6.80;99.90;;;;;;5131984;27;20039;-68
2023/01/31 10:36:30;;;;;;;20.85;4.18;;;6.80;99.90;;;;;;5131789;27;20031;-68
2023/01/31 10:39:23;;;;;;;19.60;4.15;;;6.80;99.90;;;;;;5132143;27;20043;-69
2023/01/31 10:42:17;;;;;;;18.75;4.00;;;6.70;99.90;;;;;;5131956;27;20107;-69
2023/01/31 10:44:52;;;;;;;18.83;2.92;;;6.70;99.90;;;;;;5131515;27;20039;-69
2023/01/31 10:47:19;;;;;;;27.42;4.50;;;6.80;99.90;;;;;;5114311;27;20392;-66
2023/01/31 10:49:48;;;;;;;22.27;4.70;;;6.80;99.90;;;;;;5131891;27;20573;-69
2023/01/31 10:52:51;;;;;;;19.00;3.90;;;6.70;99.90;;;;;;5131874;27;20051;-66
2023/01/31 10:55:25;;;;;;;;;;;6.70;99.90;;;;;;5131979;27;20054;-68
2023/01/31 10:57:53;;;;;;;19.23;3.38;;;6.70;99.90;;;;;;5131520;27;19915;-68
2023/01/31 11:00:27;;;;;;;25.40;6.25;;;6.70;99.90;;;;;;5131551;27;20055;-67
2023/01/31 11:02:53;;;;;;;21.17;4.18;;;6.60;99.90;;;;;;5108587;27;20127;-68
2023/01/31 11:05:22;;;;;;;31.13;5.20;;;6.60;99.90;;;;;;5130586;27;20130;-69
2023/01/31 11:07:49;;;;;;;23.90;4.95;;;6.60;99.90;;;;;;5104653;28;20284;-68
2023/01/31 11:10:28;;;;;;;27.05;5.18;;;6.70;99.90;;;;;;5113004;27;20111;-67
2023/01/31 11:12:55;;;;;;;24.77;6.38;;;6.70;99.90;;;;;;5131691;27;20043;-68
2023/01/31 11:15:25;;;;;;;20.25;4.10;;;6.70;99.90;;;;;;5113388;27;20055;-67
2023/01/31 11:17:51;;;;;;;22.15;5.47;;;6.80;99.90;;;;;;5131273;27;20440;-68
2023/01/31 11:20:26;;;;;;;21.92;5.05;;;6.80;99.90;;;;;;5118714;27;20035;-68
2023/01/31 11:22:53;;;;;;;28.90;4.15;;;6.80;99.90;;;;;;5130473;27;20091;-69
2023/01/31 11:25:21;;;;;;;26.00;4.30;;;6.80;99.90;;;;;;5130916;27;20039;-66
2023/01/31 11:27:51;;;;;;;17.35;3.72;;;6.80;99.90;;;;;;5131063;27;20039;-68
2023/01/31 11:30:39;;;;;;;19.52;4.00;;;6.70;99.90;;;;;;5130641;27;20065;-69
2023/01/31 11:33:05;;;;;;;29.20;5.10;;;6.70;99.90;;;;;;5109753;28;20379;-69
2023/01/31 11:35:33;;;;;;;21.30;3.67;;;6.70;99.90;;;;;;5130393;27;20058;-68
2023/01/31 11:38:21;;;;;;;27.08;3.67;;;6.70;99.90;;;;;;5113755;27;20035;-66
2023/01/31 11:40:47;;;;;;;19.38;3.15;;;6.70;99.90;;;;;;5131079;27;20493;-67
2023/01/31 11:43:18;;;;;;;22.67;3.67;;;6.80;99.90;;;;;;5130718;27;20164;-69
2023/01/31 11:45:52;;;;;;;23.50;4.20;;;6.80;99.90;;;;;;5130574;27;20082;-68
2023/01/31 11:48:22;;;;;;;19.23;3.47;;;6.90;99.90;;;;;;5130702;27;20043;-69
2023/01/31 11:50:57;;;;;;;20.90;3.15;;;6.90;99.90;;;;;;5130908;27;20047;-68
2023/01/31 11:53:38;;;;;;;16.40;3.85;;;6.90;99.90;;;;;;5130682;27;20047;-68
2023/01/31 11:56:23;;;;;;;20.38;3.08;;;6.90;99.90;;;;;;5130663;27;20043;-68
2023/01/31 11:58:53;;;;;;;20.80;3.30;;;7.00;99.90;;;;;;5130234;27;20043;-67
2023/01/31 12:01:21;;;;;;;13.45;2.90;;;7.00;99.90;;;;;;5130426;27;20047;-68
2023/01/31 12:04:04;;;;;;;15.93;4.13;;;7.00;99.90;;;;;;5130368;27;20039;-67
2023/01/31 12:06:34;;;;;;;;;;;7.10;99.90;;;;;;5130801;27;20039;-68
2023/01/31 12:09:03;;;;;;;21.85;3.03;;;7.10;99.90;;;;;;5130575;27;19919;-66
2023/01/31 12:11:33;;;;;;;18.63;3.05;;;7.20;99.90;;;;;;5113087;27;20119;-69
2023/01/31 12:14:05;;;;;;;19.60;3.20;;;7.20;99.90;;;;;;5130222;27;20035;-69
2023/01/31 12:16:32;;;;;;;14.50;3.50;;;7.30;99.90;;;;;;5130017;27;20488;-68
2023/01/31 12:19:10;;;;;;;20.52;3.13;;;7.30;99.90;;;;;;5129926;27;20323;-70
2023/01/31 12:21:42;;;;;;;16.85;3.15;;;7.40;99.90;;;;;;5130189;27;20035;-69
2023/01/31 12:24:32;;;;;;;15.50;2.80;;;7.40;99.90;;;;;;5130124;27;20087;-69
2023/01/31 12:27:35;;;;;;;21.65;4.43;;;7.40;99.90;;;;;;5112533;27;20305;-68
2023/01/31 12:30:04;;;;;;;;;;;7.50;99.90;;;;;;5130192;27;20445;-66
2023/01/31 12:33:07;;;;;;;18.45;2.67;;;7.50;99.90;;;;;;5129811;27;19919;-68
2023/01/31 12:35:51;;;;;;;;;;;7.60;99.90;;;;;;5130037;27;20043;-66
2023/01/31 12:38:36;;;;;;;14.60;3.00;;;7.60;99.90;;;;;;5129753;27;19968;-69
2023/01/31 12:41:25;;;;;;;21.42;4.22;;;7.60;99.90;;;;;;5129529;27;20077;-69
2023/01/31 12:44:02;;;;;;;19.58;3.65;;;7.70;99.90;;;;;;5030541;28;20045;-67
2023/01/31 12:47:01;;;;;;;15.05;3.67;;;7.70;99.90;;;;;;5027280;28;20491;-66
2023/01/31 12:49:54;;;;;;;21.05;2.97;;;7.70;99.90;;;;;;5011048;28;20045;-68
2023/01/31 12:52:38;;;;;;;17.38;3.25;;;7.70;99.90;;;;;;5024511;28;20056;-69
2023/01/31 12:55:24;;;;;;;15.07;2.80;;;7.70;99.90;;;;;;5026452;28;20412;-67
2023/01/31 12:57:55;;;;;;;18.15;3.50;;;7.80;99.90;;;;;;5026097;28;20049;-67
2023/01/31 13:00:32;;;;;;;17.30;2.60;;;7.90;99.90;;;;;;4993238;28;20120;-68
2023/01/31 13:03:26;;;;;;;15.00;3.13;;;8.00;99.90;;;;;;5027111;28;20160;-70
2023/01/31 13:06:08;;;;;;;15.73;3.13;;;8.20;99.90;;;;;;5011006;28;20048;-69
2023/01/31 13:08:37;;;;;;;15.00;2.78;;;8.70;99.90;;;;;;5025816;28;20041;-67
2023/01/31 13:11:31;;;;;;;13.85;2.92;;;8.90;99.90;;;;;;5026867;28;20088;-68